sensor_id;sensor_type;location;lat;lon;timestamp;P1;durP1;ratioP1;P2;durP2;ratioP2
77099;SDS011;66602;48.922;2.414;2024-01-07T00:02:15;1.88;;;1.73;;
77099;SDS011;66602;48.922;2.414;2024-01-07T00:04:41;2.83;;;2.63;;
77099;SDS011;66602;48.922;2.414;2024-01-07T00:07:06;3.40;;;2.10;;
77099;SDS011;66602;48.922;2.414;2024-01-07T00:09:33;2.45;;;1.73;;
77099;SDS011;66602;48.922;2.414;2024-01-07T00:11:58;3.72;;;1.63;;
77099;SDS011;66602;48.922;2.414;2024-01-07T00:14:24;1.77;;;1.67;;
77099;SDS011;66602;48.922;2.414;2024-01-07T00:16:50;5.05;;;1.60;;
77099;SDS011;66602;48.922;2.414;2024-01-07T00:19:15;2.20;;;1.70;;
77099;SDS011;66602;48.922;2.414;2024-01-07T00:21:41;1.77;;;1.67;;
77099;SDS011;66602;48.922;2.414;2024-01-07T00:24:07;1.63;;;1.52;;
77099;SDS011;66602;48.922;2.414;2024-01-07T00:26:32;4.95;;;1.83;;
77099;SDS011;66602;48.922;2.414;2024-01-07T00:28:58;2.15;;;1.80;;
77099;SDS011;66602;48.922;2.414;2024-01-07T00:31:23;8.20;;;1.73;;
77099;SDS011;66602;48.922;2.414;2024-01-07T00:33:49;1.80;;;1.70;;
77099;SDS011;66602;48.922;2.414;2024-01-07T00:36:14;3.42;;;1.65;;
77099;SDS011;66602;48.922;2.414;2024-01-07T00:38:40;4.93;;;1.52;;
77099;SDS011;66602;48.922;2.414;2024-01-07T00:41:05;6.95;;;2.00;;
77099;SDS011;66602;48.922;2.414;2024-01-07T00:43:30;4.72;;;1.60;;
77099;SDS011;66602;48.922;2.414;2024-01-07T00:45:56;7.72;;;2.05;;
77099;SDS011;66602;48.922;2.414;2024-01-07T00:48:21;4.60;;;2.20;;
77099;SDS011;66602;48.922;2.414;2024-01-07T00:50:47;2.45;;;1.70;;
77099;SDS011;66602;48.922;2.414;2024-01-07T00:53:12;2.08;;;1.92;;
77099;SDS011;66602;48.922;2.414;2024-01-07T00:55:38;2.63;;;1.58;;
77099;SDS011;66602;48.922;2.414;2024-01-07T00:58:03;1.90;;;1.80;;
77099;SDS011;66602;48.922;2.414;2024-01-07T01:00:29;4.65;;;2.35;;
77099;SDS011;66602;48.922;2.414;2024-01-07T01:02:54;2.40;;;1.90;;
77099;SDS011;66602;48.922;2.414;2024-01-07T01:05:20;1.92;;;1.77;;
77099;SDS011;66602;48.922;2.414;2024-01-07T01:07:46;1.90;;;1.80;;
77099;SDS011;66602;48.922;2.414;2024-01-07T01:10:11;1.30;;;1.30;;
77099;SDS011;66602;48.922;2.414;2024-01-07T01:12:38;6.07;;;1.65;;
77099;SDS011;66602;48.922;2.414;2024-01-07T01:15:03;5.43;;;2.45;;
77099;SDS011;66602;48.922;2.414;2024-01-07T01:17:30;1.48;;;1.48;;
77099;SDS011;66602;48.922;2.414;2024-01-07T01:19:55;3.85;;;1.80;;
77099;SDS011;66602;48.922;2.414;2024-01-07T01:22:20;3.75;;;1.92;;
77099;SDS011;66602;48.922;2.414;2024-01-07T01:24:46;4.93;;;1.85;;
77099;SDS011;66602;48.922;2.414;2024-01-07T01:27:12;5.38;;;2.30;;
77099;SDS011;66602;48.922;2.414;2024-01-07T01:29:39;2.17;;;1.55;;
77099;SDS011;66602;48.922;2.414;2024-01-07T01:32:05;5.30;;;1.77;;
77099;SDS011;66602;48.922;2.414;2024-01-07T01:34:31;1.95;;;1.75;;
77099;SDS011;66602;48.922;2.414;2024-01-07T01:36:56;2.42;;;1.67;;
77099;SDS011;66602;48.922;2.414;2024-01-07T01:39:22;3.83;;;1.60;;
77099;SDS011;66602;48.922;2.414;2024-01-07T01:41:47;3.53;;;1.63;;
77099;SDS011;66602;48.922;2.414;2024-01-07T01:44:13;6.07;;;2.50;;
77099;SDS011;66602;48.922;2.414;2024-01-07T01:46:38;2.13;;;1.75;;
77099;SDS011;66602;48.922;2.414;2024-01-07T01:49:05;1.70;;;1.52;;
77099;SDS011;66602;48.922;2.414;2024-01-07T01:51:32;2.10;;;1.80;;
77099;SDS011;66602;48.922;2.414;2024-01-07T01:53:58;3.17;;;1.40;;
77099;SDS011;66602;48.922;2.414;2024-01-07T01:56:25;1.17;;;1.17;;
77099;SDS011;66602;48.922;2.414;2024-01-07T01:58:52;9.77;;;1.58;;
77099;SDS011;66602;48.922;2.414;2024-01-07T02:01:18;3.85;;;1.48;;
77099;SDS011;66602;48.922;2.414;2024-01-07T02:03:43;1.40;;;1.30;;
77099;SDS011;66602;48.922;2.414;2024-01-07T02:06:09;2.80;;;1.80;;
77099;SDS011;66602;48.922;2.414;2024-01-07T02:08:37;8.48;;;1.90;;
77099;SDS011;66602;48.922;2.414;2024-01-07T02:11:18;2.03;;;1.38;;
77099;SDS011;66602;48.922;2.414;2024-01-07T02:13:45;2.08;;;1.50;;
77099;SDS011;66602;48.922;2.414;2024-01-07T02:16:11;2.42;;;1.35;;
77099;SDS011;66602;48.922;2.414;2024-01-07T02:18:40;1.90;;;1.38;;
77099;SDS011;66602;48.922;2.414;2024-01-07T02:21:07;2.58;;;1.35;;
77099;SDS011;66602;48.922;2.414;2024-01-07T02:23:33;2.20;;;1.60;;
77099;SDS011;66602;48.922;2.414;2024-01-07T02:25:59;3.47;;;1.48;;
77099;SDS011;66602;48.922;2.414;2024-01-07T02:28:25;3.38;;;1.50;;
77099;SDS011;66602;48.922;2.414;2024-01-07T02:30:50;4.75;;;1.63;;
77099;SDS011;66602;48.922;2.414;2024-01-07T02:33:16;2.08;;;1.70;;
77099;SDS011;66602;48.922;2.414;2024-01-07T02:35:41;2.95;;;1.48;;
77099;SDS011;66602;48.922;2.414;2024-01-07T02:38:07;1.30;;;1.30;;
77099;SDS011;66602;48.922;2.414;2024-01-07T02:40:33;5.70;;;1.67;;
77099;SDS011;66602;48.922;2.414;2024-01-07T02:42:58;4.85;;;1.42;;
77099;SDS011;66602;48.922;2.414;2024-01-07T02:45:24;2.15;;;1.70;;
77099;SDS011;66602;48.922;2.414;2024-01-07T02:47:49;1.92;;;1.58;;
77099;SDS011;66602;48.922;2.414;2024-01-07T02:50:15;5.53;;;1.88;;
77099;SDS011;66602;48.922;2.414;2024-01-07T02:52:41;2.03;;;1.90;;
77099;SDS011;66602;48.922;2.414;2024-01-07T02:55:07;5.18;;;1.90;;
77099;SDS011;66602;48.922;2.414;2024-01-07T02:57:33;4.53;;;1.52;;
77099;SDS011;66602;48.922;2.414;2024-01-07T02:59:58;1.40;;;1.33;;
77099;SDS011;66602;48.922;2.414;2024-01-07T03:02:24;2.88;;;1.63;;
77099;SDS011;66602;48.922;2.414;2024-01-07T03:04:49;2.50;;;1.60;;
77099;SDS011;66602;48.922;2.414;2024-01-07T03:07:15;5.72;;;1.75;;
77099;SDS011;66602;48.922;2.414;2024-01-07T03:09:40;1.92;;;1.35;;
77099;SDS011;66602;48.922;2.414;2024-01-07T03:12:06;5.80;;;1.95;;
77099;SDS011;66602;48.922;2.414;2024-01-07T03:14:31;1.70;;;1.40;;
77099;SDS011;66602;48.922;2.414;2024-01-07T03:16:57;8.75;;;1.35;;
77099;SDS011;66602;48.922;2.414;2024-01-07T03:19:22;4.70;;;1.60;;
77099;SDS011;66602;48.922;2.414;2024-01-07T03:21:48;8.18;;;2.22;;
77099;SDS011;66602;48.922;2.414;2024-01-07T03:24:14;2.95;;;1.38;;
77099;SDS011;66602;48.922;2.414;2024-01-07T03:26:39;4.05;;;1.77;;
77099;SDS011;66602;48.922;2.414;2024-01-07T03:29:05;3.85;;;1.42;;
77099;SDS011;66602;48.922;2.414;2024-01-07T03:31:30;5.03;;;1.17;;
77099;SDS011;66602;48.922;2.414;2024-01-07T03:33:56;3.50;;;1.35;;
77099;SDS011;66602;48.922;2.414;2024-01-07T03:36:21;4.97;;;1.88;;
77099;SDS011;66602;48.922;2.414;2024-01-07T03:38:47;4.30;;;1.48;;
77099;SDS011;66602;48.922;2.414;2024-01-07T03:41:16;1.20;;;1.10;;
77099;SDS011;66602;48.922;2.414;2024-01-07T03:43:43;4.97;;;1.48;;
77099;SDS011;66602;48.922;2.414;2024-01-07T03:46:09;1.70;;;1.60;;
77099;SDS011;66602;48.922;2.414;2024-01-07T03:48:34;3.08;;;1.40;;
77099;SDS011;66602;48.922;2.414;2024-01-07T03:51:00;1.92;;;1.60;;
77099;SDS011;66602;48.922;2.414;2024-01-07T03:53:25;1.45;;;1.10;;
77099;SDS011;66602;48.922;2.414;2024-01-07T03:55:51;1.48;;;1.38;;
77099;SDS011;66602;48.922;2.414;2024-01-07T03:58:16;1.52;;;1.42;;
77099;SDS011;66602;48.922;2.414;2024-01-07T04:00:42;5.07;;;1.88;;
77099;SDS011;66602;48.922;2.414;2024-01-07T04:03:07;2.70;;;1.50;;
77099;SDS011;66602;48.922;2.414;2024-01-07T04:05:33;2.95;;;1.50;;
77099;SDS011;66602;48.922;2.414;2024-01-07T04:08:00;7.90;;;1.75;;
77099;SDS011;66602;48.922;2.414;2024-01-07T04:10:26;3.08;;;1.65;;
77099;SDS011;66602;48.922;2.414;2024-01-07T04:12:52;2.38;;;1.45;;
77099;SDS011;66602;48.922;2.414;2024-01-07T04:15:17;1.60;;;1.50;;
77099;SDS011;66602;48.922;2.414;2024-01-07T04:17:42;2.35;;;1.30;;
77099;SDS011;66602;48.922;2.414;2024-01-07T04:20:08;1.75;;;1.65;;
77099;SDS011;66602;48.922;2.414;2024-01-07T04:22:37;5.13;;;1.35;;
77099;SDS011;66602;48.922;2.414;2024-01-07T04:25:02;7.20;;;1.60;;
77099;SDS011;66602;48.922;2.414;2024-01-07T04:27:28;3.28;;;1.33;;
77099;SDS011;66602;48.922;2.414;2024-01-07T04:29:54;3.40;;;1.25;;
77099;SDS011;66602;48.922;2.414;2024-01-07T04:32:19;3.22;;;1.40;;
77099;SDS011;66602;48.922;2.414;2024-01-07T04:34:45;2.85;;;1.58;;
77099;SDS011;66602;48.922;2.414;2024-01-07T04:37:10;4.53;;;1.52;;
77099;SDS011;66602;48.922;2.414;2024-01-07T04:39:36;2.97;;;1.98;;
77099;SDS011;66602;48.922;2.414;2024-01-07T04:42:01;2.15;;;1.30;;
77099;SDS011;66602;48.922;2.414;2024-01-07T04:44:27;4.75;;;1.63;;
77099;SDS011;66602;48.922;2.414;2024-01-07T04:46:53;4.60;;;1.70;;
77099;SDS011;66602;48.922;2.414;2024-01-07T04:49:18;4.65;;;1.98;;
77099;SDS011;66602;48.922;2.414;2024-01-07T04:51:43;6.90;;;1.80;;
77099;SDS011;66602;48.922;2.414;2024-01-07T04:54:09;1.75;;;1.48;;
77099;SDS011;66602;48.922;2.414;2024-01-07T04:56:35;2.65;;;1.48;;
77099;SDS011;66602;48.922;2.414;2024-01-07T04:59:00;9.13;;;1.63;;
77099;SDS011;66602;48.922;2.414;2024-01-07T05:01:25;4.63;;;1.60;;
77099;SDS011;66602;48.922;2.414;2024-01-07T05:03:51;2.88;;;1.30;;
77099;SDS011;66602;48.922;2.414;2024-01-07T05:06:16;5.10;;;1.60;;
77099;SDS011;66602;48.922;2.414;2024-01-07T05:08:42;2.78;;;1.60;;
77099;SDS011;66602;48.922;2.414;2024-01-07T05:11:08;4.13;;;1.90;;
77099;SDS011;66602;48.922;2.414;2024-01-07T05:13:34;5.93;;;1.50;;
77099;SDS011;66602;48.922;2.414;2024-01-07T05:16:00;3.10;;;1.40;;
77099;SDS011;66602;48.922;2.414;2024-01-07T05:18:26;3.65;;;1.75;;
77099;SDS011;66602;48.922;2.414;2024-01-07T05:20:52;1.85;;;1.17;;
77099;SDS011;66602;48.922;2.414;2024-01-07T05:23:18;3.05;;;1.58;;
77099;SDS011;66602;48.922;2.414;2024-01-07T05:25:43;7.43;;;2.25;;
77099;SDS011;66602;48.922;2.414;2024-01-07T05:28:10;4.10;;;1.35;;
77099;SDS011;66602;48.922;2.414;2024-01-07T05:30:36;6.05;;;1.80;;
77099;SDS011;66602;48.922;2.414;2024-01-07T05:33:03;1.75;;;1.65;;
77099;SDS011;66602;48.922;2.414;2024-01-07T05:35:28;2.05;;;1.88;;
77099;SDS011;66602;48.922;2.414;2024-01-07T05:37:54;4.00;;;1.60;;
77099;SDS011;66602;48.922;2.414;2024-01-07T05:40:19;1.65;;;1.55;;
77099;SDS011;66602;48.922;2.414;2024-01-07T05:42:44;4.38;;;2.08;;
77099;SDS011;66602;48.922;2.414;2024-01-07T05:45:10;4.65;;;1.55;;
77099;SDS011;66602;48.922;2.414;2024-01-07T05:47:35;2.85;;;1.55;;
77099;SDS011;66602;48.922;2.414;2024-01-07T05:50:01;1.85;;;1.67;;
77099;SDS011;66602;48.922;2.414;2024-01-07T05:52:27;3.30;;;2.00;;
77099;SDS011;66602;48.922;2.414;2024-01-07T05:54:52;2.72;;;1.77;;
77099;SDS011;66602;48.922;2.414;2024-01-07T05:57:18;9.32;;;1.77;;
77099;SDS011;66602;48.922;2.414;2024-01-07T05:59:44;3.78;;;2.50;;
77099;SDS011;66602;48.922;2.414;2024-01-07T06:02:09;1.52;;;1.42;;
77099;SDS011;66602;48.922;2.414;2024-01-07T06:04:37;8.23;;;2.00;;
77099;SDS011;66602;48.922;2.414;2024-01-07T06:07:03;5.07;;;1.60;;
77099;SDS011;66602;48.922;2.414;2024-01-07T06:09:28;2.00;;;1.90;;
77099;SDS011;66602;48.922;2.414;2024-01-07T06:11:54;4.55;;;1.77;;
77099;SDS011;66602;48.922;2.414;2024-01-07T06:14:20;5.63;;;2.05;;
77099;SDS011;66602;48.922;2.414;2024-01-07T06:16:46;4.10;;;2.13;;
77099;SDS011;66602;48.922;2.414;2024-01-07T06:19:12;2.30;;;2.10;;
77099;SDS011;66602;48.922;2.414;2024-01-07T06:21:39;5.45;;;2.08;;
77099;SDS011;66602;48.922;2.414;2024-01-07T06:24:07;5.65;;;2.03;;
77099;SDS011;66602;48.922;2.414;2024-01-07T06:26:33;3.42;;;2.35;;
77099;SDS011;66602;48.922;2.414;2024-01-07T06:28:58;2.42;;;2.22;;
77099;SDS011;66602;48.922;2.414;2024-01-07T06:31:24;5.63;;;2.00;;
77099;SDS011;66602;48.922;2.414;2024-01-07T06:33:50;4.00;;;2.17;;
77099;SDS011;66602;48.922;2.414;2024-01-07T06:36:16;5.00;;;2.25;;
77099;SDS011;66602;48.922;2.414;2024-01-07T06:38:41;3.28;;;2.33;;
77099;SDS011;66602;48.922;2.414;2024-01-07T06:41:07;3.28;;;2.60;;
77099;SDS011;66602;48.922;2.414;2024-01-07T06:43:32;4.30;;;2.60;;
77099;SDS011;66602;48.922;2.414;2024-01-07T06:45:58;7.95;;;1.98;;
77099;SDS011;66602;48.922;2.414;2024-01-07T06:48:24;2.42;;;2.33;;
77099;SDS011;66602;48.922;2.414;2024-01-07T06:50:49;5.93;;;2.40;;
77099;SDS011;66602;48.922;2.414;2024-01-07T06:53:14;2.30;;;2.20;;
77099;SDS011;66602;48.922;2.414;2024-01-07T06:55:41;2.60;;;2.20;;
77099;SDS011;66602;48.922;2.414;2024-01-07T06:58:07;2.45;;;2.28;;
77099;SDS011;66602;48.922;2.414;2024-01-07T07:00:32;2.70;;;2.30;;
77099;SDS011;66602;48.922;2.414;2024-01-07T07:02:58;2.40;;;2.20;;
77099;SDS011;66602;48.922;2.414;2024-01-07T07:05:23;10.68;;;2.30;;
77099;SDS011;66602;48.922;2.414;2024-01-07T07:07:49;2.53;;;2.33;;
77099;SDS011;66602;48.922;2.414;2024-01-07T07:10:14;3.22;;;2.65;;
77099;SDS011;66602;48.922;2.414;2024-01-07T07:12:40;3.42;;;2.67;;
77099;SDS011;66602;48.922;2.414;2024-01-07T07:15:06;3.58;;;2.30;;
77099;SDS011;66602;48.922;2.414;2024-01-07T07:17:35;4.93;;;2.20;;
77099;SDS011;66602;48.922;2.414;2024-01-07T07:20:03;4.30;;;2.47;;
77099;SDS011;66602;48.922;2.414;2024-01-07T07:22:29;2.42;;;2.30;;
77099;SDS011;66602;48.922;2.414;2024-01-07T07:24:54;2.80;;;2.50;;
77099;SDS011;66602;48.922;2.414;2024-01-07T07:27:21;4.82;;;2.60;;
77099;SDS011;66602;48.922;2.414;2024-01-07T07:29:46;2.20;;;2.10;;
77099;SDS011;66602;48.922;2.414;2024-01-07T07:32:12;3.85;;;2.70;;
77099;SDS011;66602;48.922;2.414;2024-01-07T07:34:37;2.95;;;2.55;;
77099;SDS011;66602;48.922;2.414;2024-01-07T07:37:03;3.25;;;2.80;;
77099;SDS011;66602;48.922;2.414;2024-01-07T07:39:30;6.80;;;2.65;;
77099;SDS011;66602;48.922;2.414;2024-01-07T07:41:55;2.80;;;2.60;;
77099;SDS011;66602;48.922;2.414;2024-01-07T07:44:21;2.67;;;2.55;;
77099;SDS011;66602;48.922;2.414;2024-01-07T07:46:46;3.30;;;3.00;;
77099;SDS011;66602;48.922;2.414;2024-01-07T07:49:12;4.35;;;3.33;;
77099;SDS011;66602;48.922;2.414;2024-01-07T07:51:38;2.92;;;2.60;;
77099;SDS011;66602;48.922;2.414;2024-01-07T07:54:03;5.22;;;3.35;;
77099;SDS011;66602;48.922;2.414;2024-01-07T07:56:29;3.30;;;3.10;;
77099;SDS011;66602;48.922;2.414;2024-01-07T07:58:54;5.80;;;3.35;;
77099;SDS011;66602;48.922;2.414;2024-01-07T08:01:20;3.40;;;3.10;;
77099;SDS011;66602;48.922;2.414;2024-01-07T08:03:45;3.63;;;3.42;;
77099;SDS011;66602;48.922;2.414;2024-01-07T08:06:11;5.65;;;2.97;;
77099;SDS011;66602;48.922;2.414;2024-01-07T08:08:36;4.20;;;2.83;;
77099;SDS011;66602;48.922;2.414;2024-01-07T08:11:02;5.13;;;3.22;;
77099;SDS011;66602;48.922;2.414;2024-01-07T08:13:30;3.50;;;3.20;;
77099;SDS011;66602;48.922;2.414;2024-01-07T08:15:56;3.65;;;3.08;;
77099;SDS011;66602;48.922;2.414;2024-01-07T08:18:21;7.95;;;3.33;;
77099;SDS011;66602;48.922;2.414;2024-01-07T08:20:47;3.72;;;3.40;;
77099;SDS011;66602;48.922;2.414;2024-01-07T08:23:12;5.53;;;3.45;;
77099;SDS011;66602;48.922;2.414;2024-01-07T08:25:38;4.75;;;3.20;;
77099;SDS011;66602;48.922;2.414;2024-01-07T08:28:03;6.72;;;3.47;;
77099;SDS011;66602;48.922;2.414;2024-01-07T08:30:29;3.88;;;3.50;;
77099;SDS011;66602;48.922;2.414;2024-01-07T08:32:54;3.30;;;3.10;;
77099;SDS011;66602;48.922;2.414;2024-01-07T08:35:21;4.53;;;3.80;;
77099;SDS011;66602;48.922;2.414;2024-01-07T08:37:47;3.80;;;3.47;;
77099;SDS011;66602;48.922;2.414;2024-01-07T08:40:12;3.53;;;3.17;;
77099;SDS011;66602;48.922;2.414;2024-01-07T08:42:38;3.67;;;2.95;;
77099;SDS011;66602;48.922;2.414;2024-01-07T08:45:04;3.58;;;3.38;;
77099;SDS011;66602;48.922;2.414;2024-01-07T08:47:30;3.63;;;3.30;;
77099;SDS011;66602;48.922;2.414;2024-01-07T08:49:56;3.83;;;3.42;;
77099;SDS011;66602;48.922;2.414;2024-01-07T08:52:22;5.93;;;3.05;;
77099;SDS011;66602;48.922;2.414;2024-01-07T08:54:48;4.15;;;3.72;;
77099;SDS011;66602;48.922;2.414;2024-01-07T08:57:13;4.40;;;4.05;;
77099;SDS011;66602;48.922;2.414;2024-01-07T08:59:39;3.58;;;3.30;;
77099;SDS011;66602;48.922;2.414;2024-01-07T09:02:04;6.53;;;3.75;;
77099;SDS011;66602;48.922;2.414;2024-01-07T09:04:30;4.00;;;3.70;;
77099;SDS011;66602;48.922;2.414;2024-01-07T09:06:55;5.55;;;3.90;;
77099;SDS011;66602;48.922;2.414;2024-01-07T09:09:21;4.32;;;3.92;;
77099;SDS011;66602;48.922;2.414;2024-01-07T09:11:46;5.50;;;3.60;;
77099;SDS011;66602;48.922;2.414;2024-01-07T09:14:12;4.53;;;3.95;;
77099;SDS011;66602;48.922;2.414;2024-01-07T09:16:39;3.97;;;3.78;;
77099;SDS011;66602;48.922;2.414;2024-01-07T09:19:05;4.15;;;3.85;;
77099;SDS011;66602;48.922;2.414;2024-01-07T09:21:31;4.38;;;3.85;;
77099;SDS011;66602;48.922;2.414;2024-01-07T09:23:56;3.90;;;3.58;;
77099;SDS011;66602;48.922;2.414;2024-01-07T09:26:22;5.47;;;4.20;;
77099;SDS011;66602;48.922;2.414;2024-01-07T09:28:47;4.65;;;4.35;;
77099;SDS011;66602;48.922;2.414;2024-01-07T09:31:13;4.63;;;4.32;;
77099;SDS011;66602;48.922;2.414;2024-01-07T09:33:38;5.07;;;4.75;;
77099;SDS011;66602;48.922;2.414;2024-01-07T09:36:04;5.05;;;4.65;;
77099;SDS011;66602;48.922;2.414;2024-01-07T09:38:32;7.90;;;4.57;;
77099;SDS011;66602;48.922;2.414;2024-01-07T09:40:57;6.38;;;4.65;;
77099;SDS011;66602;48.922;2.414;2024-01-07T09:43:23;5.40;;;4.88;;
77099;SDS011;66602;48.922;2.414;2024-01-07T09:45:50;6.63;;;4.60;;
77099;SDS011;66602;48.922;2.414;2024-01-07T09:48:17;6.13;;;5.30;;
77099;SDS011;66602;48.922;2.414;2024-01-07T09:50:42;9.88;;;5.40;;
77099;SDS011;66602;48.922;2.414;2024-01-07T09:53:11;5.22;;;4.82;;
77099;SDS011;66602;48.922;2.414;2024-01-07T09:58:31;6.30;;;4.72;;
77099;SDS011;66602;48.922;2.414;2024-01-07T10:00:56;5.82;;;5.32;;
77099;SDS011;66602;48.922;2.414;2024-01-07T10:03:22;4.82;;;4.45;;
77099;SDS011;66602;48.922;2.414;2024-01-07T10:05:48;6.30;;;5.80;;
77099;SDS011;66602;48.922;2.414;2024-01-07T10:08:13;6.03;;;4.90;;
77099;SDS011;66602;48.922;2.414;2024-01-07T10:10:39;6.25;;;5.10;;
77099;SDS011;66602;48.922;2.414;2024-01-07T10:13:06;5.45;;;5.05;;
77099;SDS011;66602;48.922;2.414;2024-01-07T10:15:33;5.28;;;4.80;;
77099;SDS011;66602;48.922;2.414;2024-01-07T10:18:06;8.98;;;4.80;;
77099;SDS011;66602;48.922;2.414;2024-01-07T10:20:33;6.10;;;4.90;;
77099;SDS011;66602;48.922;2.414;2024-01-07T10:23:00;7.38;;;4.72;;
77099;SDS011;66602;48.922;2.414;2024-01-07T10:25:26;5.68;;;5.18;;
77099;SDS011;66602;48.922;2.414;2024-01-07T10:27:53;5.07;;;4.78;;
77099;SDS011;66602;48.922;2.414;2024-01-07T10:30:19;5.68;;;5.18;;
77099;SDS011;66602;48.922;2.414;2024-01-07T10:32:47;7.75;;;5.20;;
77099;SDS011;66602;48.922;2.414;2024-01-07T10:35:13;7.70;;;5.43;;
77099;SDS011;66602;48.922;2.414;2024-01-07T10:37:42;6.30;;;5.70;;
77099;SDS011;66602;48.922;2.414;2024-01-07T10:40:08;6.57;;;5.97;;
77099;SDS011;66602;48.922;2.414;2024-01-07T10:42:37;6.05;;;5.55;;
77099;SDS011;66602;48.922;2.414;2024-01-07T10:45:04;6.68;;;6.18;;
77099;SDS011;66602;48.922;2.414;2024-01-07T10:47:31;9.30;;;6.63;;
77099;SDS011;66602;48.922;2.414;2024-01-07T10:49:57;7.60;;;7.05;;
77099;SDS011;66602;48.922;2.414;2024-01-07T10:52:26;9.20;;;7.30;;
77099;SDS011;66602;48.922;2.414;2024-01-07T10:54:56;6.95;;;6.35;;
77099;SDS011;66602;48.922;2.414;2024-01-07T10:57:34;7.28;;;6.78;;
77099;SDS011;66602;48.922;2.414;2024-01-07T11:00:06;7.15;;;6.65;;
77099;SDS011;66602;48.922;2.414;2024-01-07T11:02:35;8.82;;;7.88;;
77099;SDS011;66602;48.922;2.414;2024-01-07T11:05:15;8.63;;;7.93;;
77099;SDS011;66602;48.922;2.414;2024-01-07T11:08:01;8.57;;;7.72;;
77099;SDS011;66602;48.922;2.414;2024-01-07T11:10:53;8.82;;;8.23;;
77099;SDS011;66602;48.922;2.414;2024-01-07T11:13:35;10.10;;;9.10;;
77099;SDS011;66602;48.922;2.414;2024-01-07T11:16:05;17.95;;;10.65;;
77099;SDS011;66602;48.922;2.414;2024-01-07T11:18:37;11.07;;;9.93;;
77099;SDS011;66602;48.922;2.414;2024-01-07T11:21:03;12.82;;;10.02;;
77099;SDS011;66602;48.922;2.414;2024-01-07T11:23:31;10.45;;;9.13;;
77099;SDS011;66602;48.922;2.414;2024-01-07T11:25:59;10.48;;;9.40;;
77099;SDS011;66602;48.922;2.414;2024-01-07T11:31:14;10.25;;;9.35;;
77099;SDS011;66602;48.922;2.414;2024-01-07T11:33:41;11.27;;;10.07;;
77099;SDS011;66602;48.922;2.414;2024-01-07T11:36:10;11.13;;;10.07;;
77099;SDS011;66602;48.922;2.414;2024-01-07T11:38:37;12.48;;;10.45;;
77099;SDS011;66602;48.922;2.414;2024-01-07T11:41:05;11.77;;;10.57;;
77099;SDS011;66602;48.922;2.414;2024-01-07T11:43:31;15.07;;;11.30;;
77099;SDS011;66602;48.922;2.414;2024-01-07T11:45:59;16.23;;;10.82;;
77099;SDS011;66602;48.922;2.414;2024-01-07T11:48:25;18.42;;;11.57;;
77099;SDS011;66602;48.922;2.414;2024-01-07T11:50:52;15.63;;;12.45;;
77099;SDS011;66602;48.922;2.414;2024-01-07T11:53:18;19.02;;;13.07;;
77099;SDS011;66602;48.922;2.414;2024-01-07T11:55:44;17.10;;;12.85;;
77099;SDS011;66602;48.922;2.414;2024-01-07T11:58:10;18.75;;;12.85;;
77099;SDS011;66602;48.922;2.414;2024-01-07T12:00:36;18.60;;;14.05;;
77099;SDS011;66602;48.922;2.414;2024-01-07T12:03:03;19.38;;;13.15;;
77099;SDS011;66602;48.922;2.414;2024-01-07T12:05:29;18.45;;;13.60;;
77099;SDS011;66602;48.922;2.414;2024-01-07T12:07:56;20.27;;;13.48;;
77099;SDS011;66602;48.922;2.414;2024-01-07T12:10:24;20.20;;;14.05;;
77099;SDS011;66602;48.922;2.414;2024-01-07T12:12:50;19.20;;;14.27;;
77099;SDS011;66602;48.922;2.414;2024-01-07T12:15:17;16.88;;;13.52;;
77099;SDS011;66602;48.922;2.414;2024-01-07T12:17:54;18.83;;;13.85;;
77099;SDS011;66602;48.922;2.414;2024-01-07T12:20:22;18.20;;;14.07;;
77099;SDS011;66602;48.922;2.414;2024-01-07T12:22:48;22.25;;;14.10;;
77099;SDS011;66602;48.922;2.414;2024-01-07T12:25:13;19.30;;;13.80;;
77099;SDS011;66602;48.922;2.414;2024-01-07T12:27:47;17.52;;;13.55;;
77099;SDS011;66602;48.922;2.414;2024-01-07T12:30:14;18.50;;;14.68;;
77099;SDS011;66602;48.922;2.414;2024-01-07T12:32:42;15.65;;;13.88;;
77099;SDS011;66602;48.922;2.414;2024-01-07T12:35:07;19.15;;;14.23;;
77099;SDS011;66602;48.922;2.414;2024-01-07T12:37:33;22.15;;;15.27;;
77099;SDS011;66602;48.922;2.414;2024-01-07T12:39:59;20.60;;;15.13;;
77099;SDS011;66602;48.922;2.414;2024-01-07T12:42:26;17.60;;;14.27;;
77099;SDS011;66602;48.922;2.414;2024-01-07T12:44:53;19.13;;;13.90;;
77099;SDS011;66602;48.922;2.414;2024-01-07T12:47:19;19.67;;;15.13;;
77099;SDS011;66602;48.922;2.414;2024-01-07T12:49:45;16.70;;;14.02;;
77099;SDS011;66602;48.922;2.414;2024-01-07T12:52:11;18.35;;;14.18;;
77099;SDS011;66602;48.922;2.414;2024-01-07T12:54:38;19.15;;;14.48;;
77099;SDS011;66602;48.922;2.414;2024-01-07T12:57:04;21.60;;;15.57;;
77099;SDS011;66602;48.922;2.414;2024-01-07T12:59:30;21.95;;;13.82;;
77099;SDS011;66602;48.922;2.414;2024-01-07T13:01:56;20.45;;;15.07;;
77099;SDS011;66602;48.922;2.414;2024-01-07T13:04:22;19.10;;;14.98;;
77099;SDS011;66602;48.922;2.414;2024-01-07T13:06:48;17.67;;;14.38;;
77099;SDS011;66602;48.922;2.414;2024-01-07T13:09:13;17.10;;;13.57;;
77099;SDS011;66602;48.922;2.414;2024-01-07T13:11:39;22.15;;;14.95;;
77099;SDS011;66602;48.922;2.414;2024-01-07T13:14:05;15.48;;;13.30;;
77099;SDS011;66602;48.922;2.414;2024-01-07T13:16:31;15.82;;;13.27;;
77099;SDS011;66602;48.922;2.414;2024-01-07T13:18:57;14.55;;;13.25;;
77099;SDS011;66602;48.922;2.414;2024-01-07T13:21:23;25.42;;;14.63;;
77099;SDS011;66602;48.922;2.414;2024-01-07T13:23:49;16.33;;;13.50;;
77099;SDS011;66602;48.922;2.414;2024-01-07T13:26:15;15.88;;;13.48;;
77099;SDS011;66602;48.922;2.414;2024-01-07T13:28:41;14.40;;;12.88;;
77099;SDS011;66602;48.922;2.414;2024-01-07T13:31:08;16.58;;;13.82;;
77099;SDS011;66602;48.922;2.414;2024-01-07T13:33:37;15.73;;;12.52;;
77099;SDS011;66602;48.922;2.414;2024-01-07T13:36:03;13.63;;;12.38;;
77099;SDS011;66602;48.922;2.414;2024-01-07T13:38:34;12.40;;;11.30;;
77099;SDS011;66602;48.922;2.414;2024-01-07T13:41:00;14.57;;;12.48;;
77099;SDS011;66602;48.922;2.414;2024-01-07T13:43:26;14.07;;;12.57;;
77099;SDS011;66602;48.922;2.414;2024-01-07T13:45:54;12.93;;;11.70;;
77099;SDS011;66602;48.922;2.414;2024-01-07T13:48:20;12.95;;;11.75;;
77099;SDS011;66602;48.922;2.414;2024-01-07T13:50:45;12.68;;;11.68;;
77099;SDS011;66602;48.922;2.414;2024-01-07T13:53:12;15.07;;;12.07;;
77099;SDS011;66602;48.922;2.414;2024-01-07T13:55:44;13.30;;;11.95;;
77099;SDS011;66602;48.922;2.414;2024-01-07T13:58:12;13.05;;;11.82;;
77099;SDS011;66602;48.922;2.414;2024-01-07T14:00:38;14.65;;;13.32;;
77099;SDS011;66602;48.922;2.414;2024-01-07T14:03:03;13.25;;;12.13;;
77099;SDS011;66602;48.922;2.414;2024-01-07T14:05:29;15.75;;;14.10;;
77099;SDS011;66602;48.922;2.414;2024-01-07T14:07:57;13.95;;;12.65;;
77099;SDS011;66602;48.922;2.414;2024-01-07T14:10:23;13.48;;;12.10;;
77099;SDS011;66602;48.922;2.414;2024-01-07T14:12:48;13.60;;;12.27;;
77099;SDS011;66602;48.922;2.414;2024-01-07T14:15:14;15.38;;;13.63;;
77099;SDS011;66602;48.922;2.414;2024-01-07T14:17:42;14.32;;;13.02;;
77099;SDS011;66602;48.922;2.414;2024-01-07T14:20:08;14.95;;;13.52;;
77099;SDS011;66602;48.922;2.414;2024-01-07T14:22:35;15.25;;;13.20;;
77099;SDS011;66602;48.922;2.414;2024-01-07T14:25:00;15.93;;;14.25;;
77099;SDS011;66602;48.922;2.414;2024-01-07T14:27:27;14.52;;;13.32;;
77099;SDS011;66602;48.922;2.414;2024-01-07T14:29:52;14.65;;;13.20;;
77099;SDS011;66602;48.922;2.414;2024-01-07T14:32:18;14.10;;;12.75;;
77099;SDS011;66602;48.922;2.414;2024-01-07T14:34:44;13.07;;;11.98;;
77099;SDS011;66602;48.922;2.414;2024-01-07T14:37:10;15.27;;;13.10;;
77099;SDS011;66602;48.922;2.414;2024-01-07T14:39:36;14.95;;;12.35;;
77099;SDS011;66602;48.922;2.414;2024-01-07T14:42:03;14.05;;;12.65;;